createdAt,value
2019-01-02T00:01:01.603Z,6.31
2019-01-02T00:03:41.574Z,6.32
2019-01-02T00:06:22.990Z,6.29
2019-01-02T00:08:58.612Z,6.27
2019-01-02T00:11:35.910Z,6.27
2019-01-02T00:14:10.698Z,6.31
2019-01-02T00:16:50.752Z,6.38
2019-01-02T00:19:21.845Z,6.39
2019-01-02T00:21:57.543Z,6.40
2019-01-02T00:24:52.282Z,6.39
2019-01-02T00:27:42.644Z,6.41
2019-01-02T00:30:41.375Z,6.38
2019-01-02T00:33:23.503Z,6.39
2019-01-02T00:35:57.041Z,6.39
2019-01-02T00:38:28.830Z,6.35
2019-01-02T00:41:04.402Z,6.33
2019-01-02T00:43:45.958Z,6.34
2019-01-02T00:46:30.446Z,6.38
2019-01-02T00:49:08.631Z,6.35
2019-01-02T00:51:42.491Z,6.36
2019-01-02T00:54:34.375Z,6.41
2019-01-02T00:57:08.352Z,6.46
2019-01-02T00:59:48.078Z,6.53
2019-01-02T01:02:19.857Z,6.53
2019-01-02T01:05:19.253Z,6.52
2019-01-02T01:07:55.209Z,6.54
2019-01-02T01:10:44.135Z,6.52
2019-01-02T01:13:55.095Z,6.55
2019-01-02T01:16:30.085Z,6.52
2019-01-02T01:19:06.541Z,6.55
2019-01-02T01:21:44.491Z,6.59
2019-01-02T01:24:18.034Z,6.65
2019-01-02T01:26:53.711Z,6.64
2019-01-02T01:29:25.239Z,6.64
2019-01-02T01:31:59.153Z,6.64
2019-01-02T01:34:40.864Z,6.65
2019-01-02T01:37:13.364Z,6.67
2019-01-02T01:39:46.375Z,6.71
2019-01-02T01:42:20.853Z,6.72
2019-01-02T01:44:54.118Z,6.75
2019-01-02T01:47:31.854Z,6.77
2019-01-02T01:50:05.206Z,6.77
2019-01-02T01:53:02.594Z,6.74
2019-01-02T01:55:38.432Z,6.72
2019-01-02T01:58:10.094Z,6.70
2019-01-02T02:00:50.936Z,6.67
2019-01-02T02:03:24.489Z,6.70
2019-01-02T02:06:01.309Z,6.69
2019-01-02T02:08:36.976Z,6.64
2019-01-02T02:11:10.895Z,6.65
2019-01-02T02:13:53.251Z,6.69
2019-01-02T02:16:29.820Z,6.65
2019-01-02T02:19:03.280Z,6.67
2019-01-02T02:21:35.466Z,6.69
2019-01-02T02:24:08.288Z,6.65
2019-01-02T02:26:42.009Z,6.65
2019-01-02T02:29:17.260Z,6.64
2019-01-02T02:31:53.822Z,6.61
2019-01-02T02:34:28.207Z,6.61
2019-01-02T02:37:00.527Z,6.61
2019-01-02T02:39:33.691Z,6.60
2019-01-02T02:42:10.300Z,6.60
2019-01-02T02:44:44.447Z,6.62
2019-01-02T02:47:17.237Z,6.59
2019-01-02T02:49:55.970Z,6.57
2019-01-02T02:52:36.555Z,6.52
2019-01-02T02:55:25.725Z,6.49
2019-01-02T02:57:52.261Z,6.49
2019-01-02T03:00:26.066Z,6.48
2019-01-02T03:02:57.225Z,6.49
2019-01-02T03:05:31.729Z,6.48
2019-01-02T03:08:02.625Z,6.48
2019-01-02T03:10:34.015Z,6.45
2019-01-02T03:13:05.435Z,6.42
2019-01-02T03:15:37.127Z,6.43
2019-01-02T03:18:09.208Z,6.45
2019-01-02T03:20:44.859Z,6.38
2019-01-02T03:23:20.998Z,6.35
2019-01-02T03:25:55.109Z,6.33
2019-01-02T03:28:28.169Z,6.32
2019-01-02T03:31:02.378Z,6.31
2019-01-02T03:33:42.458Z,6.30
2019-01-02T03:36:17.010Z,6.28
2019-01-02T03:38:51.170Z,6.24
2019-01-02T03:41:22.508Z,6.23
2019-01-02T03:43:53.734Z,6.23
2019-01-02T03:46:24.543Z,6.21
2019-01-02T03:48:55.485Z,6.23
2019-01-02T03:51:26.924Z,6.20
2019-01-02T03:53:58.269Z,6.18
2019-01-02T03:56:47.432Z,6.17
2019-01-02T03:59:11.416Z,6.15
2019-01-02T04:01:43.358Z,6.14
2019-01-02T04:04:15.848Z,6.12
2019-01-02T04:06:47.985Z,6.09
2019-01-02T04:09:24.548Z,6.08
2019-01-02T04:11:58.215Z,6.07
2019-01-02T04:14:40.590Z,6.02
2019-01-02T04:17:14.019Z,6.01
2019-01-02T04:19:53.176Z,6.00
2019-01-02T04:22:25.857Z,5.99
2019-01-02T04:25:03.912Z,5.98
2019-01-02T04:27:36.438Z,5.96
2019-01-02T04:30:15.471Z,5.94
2019-01-02T04:32:46.430Z,5.92
2019-01-02T04:35:20.464Z,5.91
2019-01-02T04:37:51.527Z,5.90
2019-01-02T04:40:26.331Z,5.91
2019-01-02T04:42:58.504Z,5.89
2019-01-02T04:45:29.890Z,5.89
2019-01-02T04:48:01.796Z,5.88
2019-01-02T04:50:37.117Z,5.89
2019-01-02T04:53:08.234Z,5.88
2019-01-02T04:55:42.830Z,5.89
2019-01-02T04:58:14.251Z,5.87
2019-01-02T05:00:48.109Z,5.86
2019-01-02T05:03:26.238Z,5.85
2019-01-02T05:06:04.960Z,5.86
2019-01-02T05:08:45.713Z,5.86
2019-01-02T05:11:17.975Z,5.86
2019-01-02T05:13:58.429Z,5.87
2019-01-02T05:16:35.707Z,5.88
2019-01-02T05:19:08.331Z,5.88
2019-01-02T05:21:42.344Z,5.89
2019-01-02T05:24:16.543Z,5.88
2019-01-02T05:26:50.914Z,5.89
2019-01-02T05:29:37.674Z,5.94
2019-01-02T05:32:11.017Z,6.00
2019-01-02T05:34:52.503Z,5.99
2019-01-02T05:37:26.951Z,5.97
2019-01-02T05:40:03.065Z,5.93
2019-01-02T05:42:39.310Z,5.89
2019-01-02T05:45:14.714Z,5.87
2019-01-02T05:47:47.941Z,5.88
2019-01-02T05:50:18.828Z,5.87
2019-01-02T05:53:17.374Z,5.86
2019-01-02T05:55:52.570Z,5.86
2019-01-02T05:58:23.917Z,5.85
2019-01-02T06:01:03.175Z,5.87
2019-01-02T06:03:42.624Z,5.89
2019-01-02T06:06:27.459Z,5.88
2019-01-02T06:09:07.336Z,5.85
2019-01-02T06:11:47.055Z,5.84
2019-01-02T06:14:28.190Z,5.83
2019-01-02T06:17:02.481Z,5.83
2019-01-02T06:19:40.162Z,5.80
2019-01-02T06:22:19.861Z,5.77
2019-01-02T06:24:58.169Z,5.77
2019-01-02T06:27:33.499Z,5.82
2019-01-02T06:30:11.192Z,5.90
2019-01-02T06:32:42.898Z,5.91
2019-01-02T06:35:18.373Z,5.85
2019-01-02T06:37:57.315Z,5.78
2019-01-02T06:40:32.628Z,5.76
2019-01-02T06:43:13.575Z,5.81
2019-01-02T06:45:49.829Z,5.90
2019-01-02T06:48:40.259Z,5.97
2019-01-02T06:51:03.593Z,5.97
2019-01-02T06:53:38.688Z,5.93
2019-01-02T06:56:12.751Z,5.92
2019-01-02T06:58:49.989Z,5.94
2019-01-02T07:01:27.118Z,5.92
2019-01-02T07:03:59.839Z,5.94
2019-01-02T07:06:39.164Z,5.97
2019-01-02T07:09:16.260Z,6.05
2019-01-02T07:11:47.407Z,6.10
2019-01-02T07:14:19.033Z,6.15
2019-01-02T07:16:58.626Z,6.16
2019-01-02T07:19:38.272Z,6.15
2019-01-02T07:22:16.302Z,6.10
2019-01-02T07:24:50.075Z,6.10
2019-01-02T07:27:28.771Z,6.11
2019-01-02T07:30:03.720Z,6.12
2019-01-02T07:32:42.603Z,6.15
2019-01-02T07:36:17.085Z,6.16
2019-01-02T07:40:14.670Z,6.14
2019-01-02T07:44:08.667Z,6.14
2019-01-02T07:48:06.604Z,6.14
2019-01-02T07:51:43.975Z,6.11
2019-01-02T07:55:06.670Z,6.12
2019-01-02T07:59:11.255Z,6.10
2019-01-02T08:02:55.688Z,6.01
2019-01-02T08:06:38.108Z,6.10
2019-01-02T08:09:51.578Z,6.08
2019-01-02T08:13:17.758Z,6.12
2019-01-02T08:16:33.033Z,6.07
2019-01-02T08:20:35.186Z,6.00
2019-01-02T08:24:19.753Z,5.67
2019-01-02T08:27:50.373Z,4.90
2019-01-02T08:31:30.770Z,4.64
2019-01-02T08:35:00.453Z,4.64
2019-01-02T08:38:51.284Z,4.51
2019-01-02T08:42:39.242Z,4.27
2019-01-02T08:45:58.883Z,4.40
2019-01-02T08:50:25.967Z,4.39
2019-01-02T08:53:10.302Z,4.22
2019-01-02T08:56:33.232Z,4.03
2019-01-02T08:59:59.889Z,3.89
2019-01-02T09:03:01.196Z,3.95
2019-01-02T09:06:21.903Z,3.96
2019-01-02T09:09:48.376Z,4.01
2019-01-02T09:13:19.162Z,4.10
2019-01-02T09:16:38.873Z,4.33
2019-01-02T09:20:11.734Z,4.54
2019-01-02T09:23:28.639Z,4.71
2019-01-02T09:26:55.938Z,4.93
2019-01-02T09:30:44.419Z,5.18
2019-01-02T09:34:07.748Z,5.50
2019-01-02T09:37:56.514Z,5.48
2019-01-02T09:41:07.990Z,5.35
2019-01-02T09:44:37.756Z,5.31
2019-01-02T09:48:28.173Z,5.26
2019-01-02T09:51:52.759Z,5.28
2019-01-02T09:55:28.927Z,5.38
2019-01-02T09:58:43.756Z,5.59
2019-01-02T10:02:07.621Z,5.71
2019-01-02T10:05:34.359Z,5.71
2019-01-02T10:09:23.493Z,5.66
2019-01-02T10:12:56.623Z,5.58
2019-01-02T10:16:21.299Z,5.56
2019-01-02T10:19:42.671Z,5.55
2019-01-02T10:23:15.811Z,5.57
2019-01-02T10:26:46.001Z,5.56
2019-01-02T10:34:17.233Z,5.66
2019-01-02T10:37:41.676Z,5.71
2019-01-02T10:41:46.774Z,5.84
2019-01-02T10:45:11.691Z,5.96
2019-01-02T10:48:37.312Z,6.03
2019-01-02T10:52:40.181Z,5.92
2019-01-02T10:56:37.809Z,5.92
2019-01-02T11:00:14.213Z,6.18
2019-01-02T11:03:49.271Z,6.34
2019-01-02T11:07:14.899Z,6.32
2019-01-02T11:11:12.715Z,6.35
2019-01-02T11:18:22.440Z,6.37
2019-01-02T11:22:36.708Z,6.36
2019-01-02T11:29:35.534Z,6.22
2019-01-02T11:33:26.240Z,6.11
2019-01-02T11:37:08.158Z,6.06
2019-01-02T11:40:46.339Z,6.10
2019-01-02T11:44:26.661Z,6.06
2019-01-02T11:47:07.734Z,5.97
2019-01-02T11:50:00.391Z,6.03
2019-01-02T11:52:59.838Z,6.07
2019-01-02T11:56:27.956Z,6.08
2019-01-02T11:58:37.181Z,6.17
2019-01-02T12:01:11.318Z,6.14
2019-01-02T12:04:28.353Z,6.13
2019-01-02T12:06:50.618Z,6.21
2019-01-02T12:09:49.925Z,6.21
2019-01-02T12:12:29.639Z,6.27
2019-01-02T12:15:23.355Z,6.27
2019-01-02T12:18:10.355Z,6.28
2019-01-02T12:20:46.702Z,6.30
2019-01-02T12:23:27.229Z,6.32
2019-01-02T12:26:04.854Z,6.30
2019-01-02T12:29:17.537Z,6.32
2019-01-02T12:35:47.520Z,6.16
2019-01-02T12:38:28.203Z,6.03
2019-01-02T12:41:28.564Z,5.97
2019-01-02T12:43:59.496Z,5.98
2019-01-02T12:46:51.658Z,5.91
2019-01-02T12:49:28.513Z,5.90
2019-01-02T12:52:18.786Z,5.96
2019-01-02T12:55:09.164Z,5.94
2019-01-02T12:58:06.301Z,5.93
2019-01-02T13:04:55.532Z,5.86
2019-01-02T13:08:25.834Z,5.87
2019-01-02T13:11:16.684Z,5.83
2019-01-02T13:14:43.295Z,5.85
2019-01-02T13:17:43.454Z,5.88
2019-01-02T13:20:59.501Z,5.85
2019-01-02T13:24:27.496Z,5.82
2019-01-02T13:27:39.517Z,5.87
2019-01-02T13:31:24.130Z,5.84
2019-01-02T13:35:01.590Z,5.76
2019-01-02T13:38:39.264Z,5.71
2019-01-02T13:41:56.972Z,5.70
2019-01-02T13:45:25.848Z,5.76
2019-01-02T13:48:49.926Z,5.75
2019-01-02T13:51:50.128Z,5.78
2019-01-02T13:54:25.713Z,5.81
2019-01-02T13:57:01.936Z,5.82
2019-01-02T13:59:41.292Z,5.78
2019-01-02T14:02:16.258Z,5.72
2019-01-02T14:04:56.532Z,5.71
2019-01-02T14:07:40.202Z,5.70
2019-01-02T14:10:15.282Z,5.67
2019-01-02T14:12:55.962Z,5.65
2019-01-02T14:16:20.950Z,5.59
2019-01-02T14:19:26.264Z,5.54
2019-01-02T14:22:16.630Z,5.52
2019-01-02T14:25:00.389Z,5.52
2019-01-02T14:32:32.778Z,5.45
2019-01-02T14:34:46.948Z,5.44
2019-01-02T14:37:31.294Z,5.43
2019-01-02T14:40:00.396Z,5.47
2019-01-02T14:46:31.604Z,5.57
2019-01-02T14:49:35.539Z,5.57
2019-01-02T14:55:22.800Z,5.61
2019-01-02T14:58:16.043Z,5.62
2019-01-02T15:01:29.417Z,5.66
2019-01-02T15:04:12.845Z,5.62
2019-01-02T15:07:27.145Z,5.62
2019-01-02T15:13:55.342Z,5.58
2019-01-02T15:16:34.575Z,5.58
2019-01-02T15:19:14.354Z,5.59
2019-01-02T15:22:05.868Z,5.61
2019-01-02T15:25:11.640Z,5.54
2019-01-02T15:27:49.008Z,5.46
2019-01-02T15:31:06.118Z,5.38
2019-01-02T15:33:40.600Z,5.27
2019-01-02T15:36:28.990Z,5.24
2019-01-02T15:39:24.442Z,5.22
2019-01-02T15:42:11.342Z,5.17
2019-01-02T15:44:55.595Z,5.12
2019-01-02T15:48:16.468Z,5.16
2019-01-02T15:52:26.457Z,5.12
2019-01-02T15:54:31.360Z,5.08
2019-01-02T15:57:17.244Z,5.11
2019-01-02T15:59:57.100Z,5.11
2019-01-02T16:03:30.220Z,5.10
2019-01-02T16:05:46.984Z,5.05
2019-01-02T16:08:53.298Z,5.04
2019-01-02T16:11:47.462Z,4.98
2019-01-02T16:16:31.414Z,4.91
2019-01-02T16:19:06.639Z,4.83
2019-01-02T16:22:27.294Z,4.84
2019-01-02T16:28:55.474Z,4.91
2019-01-02T16:33:03.752Z,4.90
2019-01-02T16:35:08.881Z,4.86
2019-01-02T16:38:13.860Z,4.89
2019-01-02T16:41:11.286Z,4.93
2019-01-02T16:43:51.743Z,4.92
2019-01-02T16:46:31.584Z,4.87
2019-01-02T16:50:24.347Z,4.84
2019-01-02T16:55:53.891Z,4.64
2019-01-02T16:58:57.376Z,4.59
2019-01-02T17:01:59.200Z,4.52
2019-01-02T17:04:48.782Z,4.48
2019-01-02T17:10:35.976Z,4.60
2019-01-02T17:13:28.468Z,4.58
2019-01-02T17:16:27.032Z,4.54
2019-01-02T17:19:32.807Z,4.51
2019-01-02T17:22:50.575Z,4.53
2019-01-02T17:25:42.916Z,4.57
2019-01-02T17:28:32.157Z,4.56
2019-01-02T17:31:38.778Z,4.57
2019-01-02T17:34:47.289Z,4.60
2019-01-02T17:37:28.057Z,4.63
2019-01-02T17:40:20.052Z,4.69
2019-01-02T17:42:58.189Z,4.68
2019-01-02T17:45:59.392Z,4.65
2019-01-02T17:48:44.426Z,4.62
2019-01-02T17:51:53.250Z,4.64
2019-01-02T17:55:08.097Z,4.64
2019-01-02T18:01:17.075Z,4.46
2019-01-02T18:07:49.052Z,4.29
2019-01-02T18:10:50.588Z,4.26
2019-01-02T18:13:57.229Z,4.22
2019-01-02T18:17:39.808Z,4.16
2019-01-02T18:19:57.372Z,4.12
2019-01-02T18:22:38.650Z,4.09
2019-01-02T18:25:20.195Z,4.11
2019-01-02T18:28:30.051Z,4.09
2019-01-02T18:31:16.376Z,4.07
2019-01-02T18:33:55.931Z,4.05
2019-01-02T18:36:31.938Z,4.01
2019-01-02T18:39:27.712Z,4.01
2019-01-02T18:42:21.171Z,4.01
2019-01-02T18:46:17.609Z,4.01
2019-01-02T18:50:53.179Z,4.00
2019-01-02T18:55:29.607Z,4.03
2019-01-02T18:58:11.491Z,4.02
2019-01-02T19:01:04.805Z,4.05
2019-01-02T19:03:47.005Z,4.10
2019-01-02T19:06:35.308Z,4.17
2019-01-02T19:09:22.626Z,4.22
2019-01-02T19:12:00.953Z,4.23
2019-01-02T19:15:07.968Z,4.20
2019-01-02T19:18:38.927Z,4.18
2019-01-02T19:21:31.303Z,4.13
2019-01-02T19:25:25.968Z,4.13
2019-01-02T19:28:11.244Z,4.08
2019-01-02T19:32:55.352Z,4.06
2019-01-02T19:34:57.708Z,4.02
2019-01-02T19:37:39.521Z,3.97
2019-01-02T19:40:50.736Z,3.92
2019-01-02T19:44:06.065Z,3.87
2019-01-02T19:49:49.576Z,3.84
2019-01-02T19:52:36.943Z,3.85
2019-01-02T19:54:59.994Z,3.86
2019-01-02T19:58:12.211Z,3.84
2019-01-02T20:01:09.284Z,3.81
2019-01-02T20:04:35.679Z,3.83
2019-01-02T20:07:32.384Z,3.88
2019-01-02T20:11:00.541Z,3.94
2019-01-02T20:14:48.281Z,3.91
2019-01-02T20:16:45.741Z,3.90
2019-01-02T20:19:56.307Z,3.88
2019-01-02T20:22:35.921Z,3.85
2019-01-02T20:25:17.163Z,3.81
2019-01-02T20:28:13.038Z,3.82
2019-01-02T20:30:50.505Z,3.79
2019-01-02T20:34:28.855Z,3.77
2019-01-02T20:36:14.763Z,3.74
2019-01-02T20:38:57.874Z,3.71
2019-01-02T20:41:49.678Z,3.69
2019-01-02T20:44:26.473Z,3.66
2019-01-02T20:47:15.261Z,3.62
2019-01-02T20:49:59.399Z,3.58
2019-01-02T20:52:47.757Z,3.54
2019-01-02T20:55:39.174Z,3.55
2019-01-02T20:58:49.709Z,3.52
2019-01-02T21:01:26.694Z,3.48
2019-01-02T21:04:11.169Z,3.47
2019-01-02T21:07:10.372Z,3.47
2019-01-02T21:10:09.351Z,3.46
2019-01-02T21:12:50.029Z,3.41
2019-01-02T21:16:06.319Z,3.38
2019-01-02T21:18:38.876Z,3.37
2019-01-02T21:21:39.946Z,3.36
2019-01-02T21:24:55.187Z,3.34
2019-01-02T21:27:18.569Z,3.35
2019-01-02T21:30:06.064Z,3.33
2019-01-02T21:36:48.795Z,3.31
2019-01-02T21:39:41.378Z,3.31
2019-01-02T21:43:15.277Z,3.33
2019-01-02T21:46:54.869Z,3.33
2019-01-02T21:53:47.235Z,3.35
2019-01-02T22:08:14.852Z,3.33
2019-01-02T22:11:33.947Z,3.30
2019-01-02T22:14:56.448Z,3.31
2019-01-02T22:20:18.811Z,3.29
2019-01-02T22:22:58.007Z,3.28
2019-01-02T22:25:45.676Z,3.30
2019-01-02T22:28:32.010Z,3.28
2019-01-02T22:31:18.589Z,3.28
2019-01-02T22:33:50.378Z,3.27
2019-01-02T22:36:59.468Z,3.29
2019-01-02T22:40:03.352Z,3.31
2019-01-02T22:42:51.261Z,3.29
2019-01-02T22:45:24.702Z,3.28
2019-01-02T22:47:57.877Z,3.27
2019-01-02T22:51:42.823Z,3.29
2019-01-02T22:54:19.941Z,3.24
2019-01-02T22:56:59.817Z,3.20
2019-01-02T23:03:48.604Z,3.16
2019-01-02T23:07:01.735Z,3.18
2019-01-02T23:11:11.758Z,3.19
2019-01-02T23:14:42.313Z,3.18
2019-01-02T23:22:45.127Z,3.13
2019-01-02T23:26:07.561Z,3.07
2019-01-02T23:29:34.308Z,3.02
2019-01-02T23:32:42.234Z,2.99
2019-01-02T23:36:17.788Z,2.96
2019-01-02T23:41:50.479Z,2.97
2019-01-02T23:46:40.501Z,2.96
2019-01-02T23:49:35.971Z,2.99
2019-01-02T23:53:08.988Z,2.98
2019-01-02T23:56:15.448Z,2.95
